Time;durP1;ratioP1;P1;durP2;ratioP2;P2;SDS_P1;SDS_P2;PMS_P1;PMS_P2;Temp;Humidity;BMP_temperature;BMP_pressure;BME280_temperature;BME280_humidity;BME280_pressure;Samples;Min_cycle;Max_cycle;Signal;HPM_P1;HPM_P2
2022/06/07 00:02:26;;;;;;;0.00;0.00;;;15.20;99.90;;;;;;5017690;28;20536;-72
2022/06/07 00:04:54;;;;;;;0.00;0.00;;;15.20;99.90;;;;;;5017556;28;20501;-72
2022/06/07 00:07:23;;;;;;;0.00;0.00;;;15.20;99.90;;;;;;5017350;28;20790;-72
2022/06/07 00:09:51;;;;;;;0.00;0.00;;;15.20;99.90;;;;;;5020929;28;21092;-72
2022/06/07 00:12:20;;;;;;;0.00;0.00;;;15.20;99.90;;;;;;5021194;28;20819;-71
2022/06/07 00:14:48;;;;;;;0.00;0.00;;;15.10;99.90;;;;;;5020736;28;21107;-72
2022/06/07 00:17:16;;;;;;;0.00;0.00;;;15.10;99.90;;;;;;5020662;28;20649;-72
2022/06/07 00:19:45;;;;;;;0.00;0.00;;;15.10;99.90;;;;;;5020720;28;20595;-72
2022/06/07 00:22:13;;;;;;;0.00;0.00;;;15.20;99.90;;;;;;5020976;28;20472;-72
2022/06/07 00:24:41;;;;;;;0.00;0.00;;;15.20;99.90;;;;;;5020824;28;20436;-72
2022/06/07 00:27:09;;;;;;;0.00;0.00;;;15.10;99.90;;;;;;5020725;28;20690;-72
2022/06/07 00:29:38;;;;;;;0.00;0.00;;;15.10;99.90;;;;;;5020872;28;20452;-72
2022/06/07 00:32:08;;;;;;;0.00;0.00;;;15.10;99.90;;;;;;5020596;28;21161;-72
2022/06/07 00:34:36;;;;;;;0.00;0.00;;;15.10;99.90;;;;;;5020642;28;20433;-72
2022/06/07 00:37:05;;;;;;;0.00;0.00;;;15.10;99.90;;;;;;5020202;28;20496;-72
2022/06/07 00:39:33;;;;;;;0.00;0.00;;;15.00;99.90;;;;;;5020478;28;20441;-71
2022/06/07 00:42:01;;;;;;;0.00;0.00;;;15.00;99.90;;;;;;5020085;28;21187;-73
2022/06/07 00:44:36;;;;;;;0.00;0.00;;;15.00;99.90;;;;;;5020605;28;20510;-71
2022/06/07 00:47:08;;;;;;;0.00;0.00;;;14.90;99.90;;;;;;5020310;28;20440;-72
2022/06/07 00:49:40;;;;;;;0.00;0.00;;;15.00;99.90;;;;;;5020447;28;20852;-72
2022/06/07 00:52:10;;;;;;;0.00;0.00;;;15.00;99.90;;;;;;5020199;28;20461;-72
2022/06/07 00:54:38;;;;;;;0.00;0.00;;;14.90;99.90;;;;;;5020542;28;20437;-72
2022/06/07 00:57:06;;;;;;;0.00;0.00;;;15.00;99.90;;;;;;5020001;28;20472;-72
2022/06/07 00:59:34;;;;;;;0.00;0.00;;;15.00;99.90;;;;;;5020340;28;20560;-74
2022/06/07 01:02:02;;;;;;;0.00;0.00;;;14.90;99.90;;;;;;5020390;28;20975;-74
2022/06/07 01:04:30;;;;;;;0.00;0.00;;;14.90;99.90;;;;;;5021045;28;20713;-73
2022/06/07 01:12:32;;;;;;;0.00;0.00;;;14.90;99.90;;;;;;5019989;28;20453;-73
2022/06/07 01:15:00;;;;;;;0.00;0.00;;;14.90;99.90;;;;;;5025904;28;20633;-72
2022/06/07 01:17:28;;;;;;;0.00;0.00;;;14.90;99.90;;;;;;5026897;28;20579;-71
2022/06/07 01:19:56;;;;;;;0.00;0.00;;;14.90;99.90;;;;;;5018835;28;20453;-71
2022/06/07 01:22:25;;;;;;;0.00;0.00;;;14.90;99.90;;;;;;5019526;28;20767;-71
2022/06/07 01:24:53;;;;;;;0.00;0.00;;;14.90;99.90;;;;;;5020124;28;20441;-71
2022/06/07 01:27:22;;;;;;;0.00;0.00;;;15.00;99.90;;;;;;4996499;28;20473;-72
2022/06/07 01:29:50;;;;;;;0.00;0.00;;;15.00;99.90;;;;;;5019167;28;20440;-71
2022/06/07 01:32:18;;;;;;;0.00;0.00;;;15.00;99.90;;;;;;5019655;28;20564;-71
2022/06/07 01:34:46;;;;;;;0.00;0.00;;;15.00;99.90;;;;;;5019583;28;20891;-72
2022/06/07 01:37:18;;;;;;;0.00;0.00;;;15.00;99.90;;;;;;5019347;28;20495;-70
2022/06/07 01:42:33;;;;;;;0.00;0.00;;;15.00;99.90;;;;;;5019580;28;20463;-71
2022/06/07 01:45:00;;;;;;;0.00;0.00;;;15.00;99.90;;;;;;5019579;28;20527;-71
2022/06/07 01:47:30;;;;;;;0.00;0.00;;;15.00;99.90;;;;;;5019460;28;20532;-71
2022/06/07 01:49:58;;;;;;;0.00;0.00;;;14.90;99.90;;;;;;5019293;28;20739;-71
2022/06/07 01:52:28;;;;;;;0.00;0.00;;;14.90;99.90;;;;;;5019124;28;20473;-71
2022/06/07 01:54:57;;;;;;;0.00;0.00;;;14.90;99.90;;;;;;5019132;28;20550;-71
2022/06/07 01:57:25;;;;;;;0.00;0.00;;;14.90;99.90;;;;;;5019126;28;20868;-72
2022/06/07 01:59:54;;;;;;;0.00;0.00;;;14.80;99.90;;;;;;5018895;28;20437;-71
2022/06/07 02:02:24;;;;;;;0.00;0.00;;;14.80;99.90;;;;;;5019302;28;20538;-71
2022/06/07 02:04:52;;;;;;;0.00;0.00;;;14.80;99.90;;;;;;5020272;28;20469;-72
2022/06/07 02:07:20;;;;;;;0.00;0.00;;;14.90;99.90;;;;;;5020115;28;20990;-72
2022/06/07 02:09:48;;;;;;;0.00;0.00;;;14.90;99.90;;;;;;5019675;28;20449;-72
2022/06/07 02:12:17;;;;;;;0.00;0.00;;;15.00;99.90;;;;;;5020566;28;20701;-72
2022/06/07 02:14:45;;;;;;;0.00;0.00;;;15.00;99.90;;;;;;5019625;28;20584;-72
2022/06/07 02:17:13;;;;;;;0.00;0.00;;;15.10;99.90;;;;;;5017645;28;20481;-72
2022/06/07 02:19:42;;;;;;;0.00;0.00;;;15.00;99.90;;;;;;5018897;28;20452;-72
2022/06/07 02:22:10;;;;;;;0.00;0.00;;;14.90;99.90;;;;;;5018700;28;20741;-71
2022/06/07 02:24:38;;;;;;;0.00;0.00;;;15.00;99.90;;;;;;5018635;28;20818;-73
2022/06/07 02:27:09;;;;;;;0.00;0.00;;;15.00;99.90;;;;;;5018636;28;21118;-72
2022/06/07 02:29:41;;;;;;;0.00;0.00;;;15.10;99.90;;;;;;5018689;28;20692;-72
2022/06/07 02:32:12;;;;;;;0.00;0.00;;;15.10;99.90;;;;;;5018284;28;20491;-73
2022/06/07 02:34:42;;;;;;;0.00;0.00;;;15.00;99.90;;;;;;5018197;28;20706;-73
2022/06/07 02:37:11;;;;;;;0.00;0.00;;;15.00;99.90;;;;;;5018407;28;20476;-72
2022/06/07 02:39:39;;;;;;;0.00;0.00;;;15.00;99.90;;;;;;5018578;28;20566;-72
2022/06/07 02:42:10;;;;;;;0.00;0.00;;;15.00;99.90;;;;;;5018597;28;20492;-72
2022/06/07 02:44:40;;;;;;;0.00;0.00;;;15.10;99.90;;;;;;5018877;28;20540;-72
2022/06/07 02:47:08;;;;;;;0.00;0.00;;;15.10;99.90;;;;;;5018339;28;20940;-73
2022/06/07 02:49:37;;;;;;;0.00;0.00;;;15.10;99.90;;;;;;5018556;28;20473;-73
2022/06/07 02:52:05;;;;;;;0.00;0.00;;;15.00;99.90;;;;;;5019696;28;20830;-73
2022/06/07 02:54:36;;;;;;;0.00;0.00;;;15.00;99.90;;;;;;5019987;28;21010;-73
2022/06/07 02:57:05;;;;;;;0.00;0.00;;;15.10;99.90;;;;;;5020067;28;20635;-73
2022/06/07 02:59:32;;;;;;;0.00;0.00;;;15.10;99.90;;;;;;5018669;28;20972;-72
2022/06/07 03:02:02;;;;;;;0.00;0.00;;;15.10;99.90;;;;;;5018813;28;20539;-73
2022/06/07 03:04:30;;;;;;;0.00;0.00;;;15.20;99.90;;;;;;5018552;28;20637;-71
2022/06/07 03:06:59;;;;;;;0.00;0.00;;;15.10;99.90;;;;;;5017711;28;20790;-72
2022/06/07 03:09:27;;;;;;;0.00;0.00;;;15.20;99.90;;;;;;5018126;28;20433;-70
2022/06/07 03:11:56;;;;;;;0.00;0.00;;;15.20;99.90;;;;;;5017963;28;20469;-71
2022/06/07 03:14:23;;;;;;;0.00;0.00;;;15.30;99.90;;;;;;5017494;28;20571;-71
2022/06/07 03:16:56;;;;;;;0.00;0.00;;;15.30;99.90;;;;;;5017415;28;20854;-71
2022/06/07 03:19:29;;;;;;;0.00;0.00;;;15.30;99.90;;;;;;5017953;28;20468;-72
2022/06/07 03:21:56;;;;;;;0.00;0.00;;;15.40;99.90;;;;;;5017610;28;20468;-72
2022/06/07 03:24:25;;;;;;;0.00;0.00;;;15.40;99.90;;;;;;5017764;28;20829;-72
2022/06/07 03:26:53;;;;;;;0.00;0.00;;;15.40;99.90;;;;;;5018040;28;21008;-72
2022/06/07 03:29:21;;;;;;;0.00;0.00;;;15.40;99.90;;;;;;5018006;28;20542;-71
2022/06/07 03:31:49;;;;;;;0.00;0.00;;;15.40;99.90;;;;;;5017390;28;20476;-72
2022/06/07 03:34:17;;;;;;;0.00;0.00;;;15.40;99.90;;;;;;5017770;28;20759;-72
2022/06/07 03:36:46;;;;;;;0.00;0.00;;;15.30;99.90;;;;;;5017428;28;21249;-72
2022/06/07 03:39:14;;;;;;;0.00;0.00;;;15.30;99.90;;;;;;5017465;28;20960;-72
2022/06/07 03:41:41;;;;;;;0.00;0.00;;;15.30;99.90;;;;;;5017422;28;21144;-72
2022/06/07 03:44:09;;;;;;;0.00;0.00;;;15.20;99.90;;;;;;5020892;28;20534;-72
2022/06/07 03:46:37;;;;;;;0.00;0.00;;;15.20;99.90;;;;;;5021120;28;20433;-72
2022/06/07 03:49:05;;;;;;;0.00;0.00;;;15.20;99.90;;;;;;5021384;28;20437;-72
2022/06/07 03:51:33;;;;;;;0.00;0.00;;;15.20;99.90;;;;;;5021383;28;20457;-72
2022/06/07 03:54:03;;;;;;;0.00;0.00;;;15.20;99.90;;;;;;5021836;28;20451;-72
2022/06/07 03:56:33;;;;;;;0.00;0.00;;;15.10;99.90;;;;;;5021617;28;20929;-74
2022/06/07 03:59:01;;;;;;;0.00;0.00;;;15.10;99.90;;;;;;5021925;28;20804;-75
2022/06/07 04:01:29;;;;;;;0.00;0.00;;;15.10;99.90;;;;;;5021730;28;20735;-73
2022/06/07 04:04:05;;;;;;;0.00;0.00;;;15.20;99.90;;;;;;5022932;28;20452;-79
2022/06/07 04:06:35;;;;;;;0.00;0.00;;;15.20;99.90;;;;;;5027330;28;20432;-78
2022/06/07 04:09:05;;;;;;;0.00;0.00;;;15.20;99.90;;;;;;5032287;28;20899;-79
2022/06/07 04:11:34;;;;;;;0.00;0.00;;;15.30;99.90;;;;;;5036066;28;20461;-79
2022/06/07 04:14:02;;;;;;;0.00;0.00;;;15.30;99.90;;;;;;5028142;28;20524;-77
2022/06/07 04:16:31;;;;;;;0.00;0.00;;;15.40;99.90;;;;;;5032365;28;20457;-79
2022/06/07 04:18:59;;;;;;;0.00;0.00;;;15.40;99.90;;;;;;5029026;28;20484;-80
2022/06/07 04:21:27;;;;;;;0.00;0.00;;;15.40;99.90;;;;;;5021964;28;20472;-76
2022/06/07 04:23:55;;;;;;;0.00;0.00;;;15.50;99.90;;;;;;5020794;28;20520;-74
2022/06/07 04:26:27;;;;;;;0.00;0.00;;;15.40;99.90;;;;;;5020790;28;20460;-74
2022/06/07 04:28:57;;;;;;;0.00;0.00;;;15.50;99.90;;;;;;5021214;28;20694;-73
2022/06/07 04:31:26;;;;;;;0.00;0.00;;;15.50;99.90;;;;;;5020216;28;20485;-74
2022/06/07 04:33:56;;;;;;;0.00;0.00;;;15.50;99.90;;;;;;5020191;28;21075;-75
2022/06/07 04:36:26;;;;;;;0.00;0.00;;;15.60;99.90;;;;;;5020366;28;20446;-74
2022/06/07 04:38:56;;;;;;;0.00;0.00;;;15.60;99.90;;;;;;5020679;28;20475;-75
2022/06/07 04:41:26;;;;;;;0.00;0.00;;;15.60;99.90;;;;;;5022728;28;20477;-74
2022/06/07 04:43:55;;;;;;;0.00;0.00;;;15.70;99.90;;;;;;5015151;28;20547;-76
2022/06/07 04:46:24;;;;;;;0.00;0.00;;;15.70;99.90;;;;;;5019561;28;20613;-74
2022/06/07 04:48:53;;;;;;;0.00;0.00;;;15.70;99.90;;;;;;5010926;28;20830;-74
2022/06/07 04:51:24;;;;;;;0.00;0.00;;;15.70;99.90;;;;;;5015467;28;21209;-74
2022/06/07 04:53:52;;;;;;;0.00;0.00;;;15.70;99.90;;;;;;5009119;28;20529;-74
2022/06/07 04:56:22;;;;;;;0.00;0.00;;;15.60;99.90;;;;;;5000668;28;20957;-75
2022/06/07 04:58:53;;;;;;;0.00;0.00;;;15.60;99.90;;;;;;5006714;28;20555;-74
2022/06/07 05:01:24;;;;;;;0.00;0.00;;;15.60;99.90;;;;;;5015193;28;20993;-75
2022/06/07 05:03:53;;;;;;;0.00;0.00;;;15.70;99.90;;;;;;5002442;28;20686;-77
2022/06/07 05:06:23;;;;;;;0.00;0.00;;;15.60;99.90;;;;;;5017003;28;20964;-77
2022/06/07 05:08:54;;;;;;;0.00;0.00;;;15.70;99.90;;;;;;5008527;28;20804;-77
2022/06/07 05:11:22;;;;;;;0.00;0.00;;;15.70;99.90;;;;;;5013953;28;20529;-79
2022/06/07 05:13:55;;;;;;;0.00;0.00;;;15.60;99.90;;;;;;5013727;28;20653;-78
2022/06/07 05:16:23;;;;;;;0.00;0.00;;;15.70;99.90;;;;;;5011311;28;20487;-78
2022/06/07 05:18:53;;;;;;;0.00;0.00;;;15.70;99.90;;;;;;5007597;28;20523;-76
2022/06/07 05:21:22;;;;;;;0.00;0.00;;;15.70;99.90;;;;;;5013713;28;20497;-76
2022/06/07 05:23:51;;;;;;;0.00;0.00;;;15.70;99.90;;;;;;5010691;28;21012;-77
2022/06/07 05:26:25;;;;;;;0.00;0.00;;;15.80;99.90;;;;;;5001753;28;21079;-77
2022/06/07 05:28:55;;;;;;;0.00;0.00;;;15.90;99.90;;;;;;5004517;28;20522;-76
2022/06/07 05:31:24;;;;;;;0.00;0.00;;;15.80;99.90;;;;;;5000788;28;20985;-79
2022/06/07 05:33:52;;;;;;;0.00;0.00;;;15.80;99.90;;;;;;5011443;28;21100;-80
2022/06/07 05:36:21;;;;;;;0.00;0.00;;;15.80;99.90;;;;;;5016380;28;20446;-79
2022/06/07 05:38:50;;;;;;;0.00;0.00;;;15.90;99.90;;;;;;5005417;28;20559;-77
2022/06/07 05:41:21;;;;;;;0.00;0.00;;;15.80;99.90;;;;;;5017256;28;20497;-80
2022/06/07 05:43:49;;;;;;;0.00;0.00;;;15.80;99.90;;;;;;5013866;28;20465;-71
2022/06/07 05:46:19;;;;;;;0.00;0.00;;;15.80;99.90;;;;;;5017546;28;21005;-70
2022/06/07 05:48:47;;;;;;;0.00;0.00;;;16.00;99.90;;;;;;5008708;28;20634;-70
2022/06/07 05:51:16;;;;;;;0.00;0.00;;;16.00;99.90;;;;;;5007058;28;20699;-70
2022/06/07 05:53:43;;;;;;;0.00;0.00;;;15.90;99.90;;;;;;5019100;28;20994;-70
2022/06/07 05:56:15;;;;;;;0.00;0.00;;;15.90;99.90;;;;;;5018693;28;20452;-69
2022/06/07 05:58:43;;;;;;;0.00;0.00;;;15.70;99.90;;;;;;5018841;28;20568;-70
2022/06/07 06:01:11;;;;;;;0.00;0.00;;;15.70;99.90;;;;;;5016110;28;21096;-70
2022/06/07 06:03:40;;;;;;;0.00;0.00;;;15.70;99.90;;;;;;5016637;28;20447;-69
2022/06/07 06:06:09;;;;;;;0.00;0.00;;;15.70;99.90;;;;;;5017133;28;20938;-69
2022/06/07 06:11:25;;;;;;;0.00;0.00;;;15.70;99.90;;;;;;5003018;28;20528;-70
2022/06/07 06:13:53;;;;;;;0.00;0.00;;;15.70;99.90;;;;;;5015694;28;20456;-70
2022/06/07 06:16:23;;;;;;;0.00;0.00;;;15.70;99.90;;;;;;5017239;28;20473;-69
2022/06/07 06:18:54;;;;;;;0.00;0.00;;;15.60;99.90;;;;;;5015615;28;20516;-69
2022/06/07 06:21:24;;;;;;;0.00;0.00;;;15.60;99.90;;;;;;5014639;28;20464;-69
2022/06/07 06:23:53;;;;;;;0.00;0.00;;;15.60;99.90;;;;;;5015135;28;20812;-69
2022/06/07 06:26:21;;;;;;;0.00;0.00;;;15.50;99.90;;;;;;5016986;28;20805;-69
2022/06/07 06:28:49;;;;;;;0.00;0.00;;;15.60;99.90;;;;;;4999302;28;20708;-69
2022/06/07 06:31:22;;;;;;;0.00;0.00;;;15.70;99.90;;;;;;5008075;28;20535;-69
2022/06/07 06:33:55;;;;;;;0.00;0.00;;;15.80;99.90;;;;;;5012959;28;20506;-69
2022/06/07 06:36:27;;;;;;;0.00;0.00;;;15.90;99.90;;;;;;5010705;28;20449;-69
2022/06/07 06:38:56;;;;;;;0.00;0.00;;;15.90;99.90;;;;;;5010601;28;20469;-70
2022/06/07 06:41:32;;;;;;;0.00;0.00;;;15.90;99.90;;;;;;5018558;28;20993;-68
2022/06/07 06:44:02;;;;;;;0.00;0.00;;;16.00;99.90;;;;;;5018889;28;20447;-68
2022/06/07 06:46:32;;;;;;;0.00;0.00;;;16.00;99.90;;;;;;5019386;28;20430;-70
2022/06/07 06:49:03;;;;;;;0.00;0.00;;;16.10;99.90;;;;;;5019300;28;20929;-70
2022/06/07 06:51:31;;;;;;;0.00;0.00;;;16.00;99.90;;;;;;5019396;28;20457;-69
2022/06/07 06:54:01;;;;;;;0.00;0.00;;;16.00;99.90;;;;;;5019552;28;20456;-68
2022/06/07 06:56:32;;;;;;;0.00;0.00;;;16.10;99.90;;;;;;5019759;28;20528;-68
2022/06/07 06:59:00;;;;;;;0.00;0.00;;;16.10;99.90;;;;;;5018446;28;20572;-69
2022/06/07 07:01:31;;;;;;;0.00;0.00;;;16.10;99.90;;;;;;5017525;28;20571;-68
2022/06/07 07:04:02;;;;;;;0.00;0.00;;;16.10;99.90;;;;;;5017823;28;20761;-71
2022/06/07 07:06:30;;;;;;;0.00;0.00;;;16.20;99.90;;;;;;5018013;28;20535;-70
2022/06/07 07:09:00;;;;;;;0.00;0.00;;;16.10;99.90;;;;;;5017367;28;20495;-66
2022/06/07 07:11:31;;;;;;;0.00;0.00;;;16.20;99.90;;;;;;5013782;28;20577;-69
2022/06/07 07:14:00;;;;;;;0.00;0.00;;;16.20;99.90;;;;;;5015270;28;21040;-69
2022/06/07 07:16:31;;;;;;;0.00;0.00;;;16.20;99.90;;;;;;5009714;28;20475;-78
2022/06/07 07:19:03;;;;;;;0.00;0.00;;;16.20;99.90;;;;;;5005991;28;20492;-77
2022/06/07 07:21:34;;;;;;;0.00;0.00;;;16.20;99.90;;;;;;5008253;28;20474;-77
2022/06/07 07:56:40;;;;;;;0.00;0.00;;;17.40;99.90;;;;;;5737356;22;20507;-91
2022/06/07 07:59:14;;;;;;;0.00;0.00;;;17.50;99.90;;;;;;5030139;28;20497;-91
2022/06/07 08:01:53;;;;;;;0.00;0.00;;;17.40;99.90;;;;;;5027505;28;20455;-92
2022/06/07 08:04:21;;;;;;;0.00;0.00;;;17.40;99.90;;;;;;5027174;28;20528;-92
2022/06/07 08:06:51;;;;;;;0.00;0.00;;;17.50;99.90;;;;;;5025383;28;20522;-91
2022/06/07 08:09:23;;;;;;;0.00;0.00;;;17.50;99.90;;;;;;5025326;28;20446;-91
2022/06/07 08:11:54;;;;;;;0.00;0.00;;;17.50;99.90;;;;;;5032832;28;20439;-94
2022/06/07 08:14:24;;;;;;;0.00;0.00;;;17.50;99.90;;;;;;5024655;28;20512;-92
2022/06/07 08:16:54;;;;;;;0.00;0.00;;;17.40;99.90;;;;;;5023584;28;20481;-92
2022/06/07 08:22:35;;;;;;;0.00;0.00;;;17.40;99.90;;;;;;5082627;22;20492;-96
2022/06/07 08:25:13;;;;;;;0.00;0.00;;;17.50;99.90;;;;;;5021677;28;20459;-91
2022/06/07 08:27:47;;;;;;;0.00;0.00;;;17.50;99.90;;;;;;5016417;28;20487;-93
2022/06/07 08:30:24;;;;;;;0.00;0.00;;;17.60;99.90;;;;;;5019395;28;20448;-92
2022/06/07 08:32:56;;;;;;;0.00;0.00;;;17.60;99.90;;;;;;5019123;28;20462;-90
2022/06/07 08:38:11;;;;;;;0.00;0.00;;;18.00;99.90;;;;;;5015894;28;20501;-91
2022/06/07 08:43:47;;;;;;;0.00;0.00;;;18.30;99.90;;;;;;1043600;26;20718;-90
2022/06/07 08:46:59;;;;;;;0.00;0.00;;;18.50;99.90;;;;;;5069492;28;20478;-95
2022/06/07 12:26:34;;;;;;;0.00;0.00;;;19.80;99.90;;;;;;5094726;28;20622;-91
2022/06/07 12:29:21;;;;;;;0.00;0.00;;;19.80;99.90;;;;;;5094903;28;20442;-93
2022/06/07 12:32:03;;;;;;;0.00;0.00;;;19.90;99.90;;;;;;5093983;28;20971;-92
2022/06/07 12:34:34;;;;;;;0.00;0.00;;;20.00;99.90;;;;;;5094560;28;20481;-92
2022/06/07 12:37:30;;;;;;;0.00;0.00;;;20.00;99.90;;;;;;5098095;28;20446;-92
2022/06/07 12:40:03;;;;;;;0.00;0.00;;;20.00;99.90;;;;;;5105668;28;20468;-92
2022/06/07 12:42:45;;;;;;;0.00;0.00;;;20.00;99.90;;;;;;5107440;28;20445;-92
2022/06/07 12:45:23;;;;;;;0.00;0.00;;;19.90;99.90;;;;;;5095106;28;20446;-91
2022/06/07 12:47:56;;;;;;;0.00;0.00;;;19.80;99.90;;;;;;5095155;28;20932;-91
2022/06/07 12:50:34;;;;;;;0.00;0.00;;;19.80;99.90;;;;;;5094162;28;20579;-91
2022/06/07 12:53:03;;;;;;;0.00;0.00;;;19.70;99.90;;;;;;5094394;28;20461;-92
2022/06/07 12:55:36;;;;;;;0.00;0.00;;;19.50;99.90;;;;;;5097608;28;20462;-91
2022/06/07 12:58:18;;;;;;;0.00;0.00;;;19.30;99.90;;;;;;5102275;28;20473;-92
2022/06/07 13:00:50;;;;;;;0.00;0.00;;;19.30;99.90;;;;;;5107652;28;20525;-91
2022/06/07 13:03:26;;;;;;;0.00;0.00;;;19.30;99.90;;;;;;5109647;28;20466;-92
2022/06/07 13:05:59;;;;;;;0.00;0.00;;;19.30;99.90;;;;;;5098047;28;20479;-92
2022/06/07 13:08:39;;;;;;;0.00;0.00;;;19.20;99.90;;;;;;5094941;28;20529;-92
2022/06/07 13:11:15;;;;;;;0.00;0.00;;;19.20;99.90;;;;;;5095095;28;20537;-92
2022/06/07 13:13:51;;;;;;;0.00;0.00;;;19.20;99.90;;;;;;5094681;28;20490;-91
2022/06/07 13:19:29;;;;;;;0.00;0.00;;;19.20;99.90;;;;;;5095013;28;20450;-91
2022/06/07 13:22:03;;;;;;;0.00;0.00;;;19.30;99.90;;;;;;5094686;28;20843;-92
2022/06/07 13:24:42;;;;;;;0.00;0.00;;;19.50;99.90;;;;;;5093584;28;20562;-91
2022/06/07 13:27:43;;;;;;;0.00;0.00;;;19.60;99.90;;;;;;5093893;28;20465;-92
2022/06/07 13:30:26;;;;;;;0.00;0.00;;;19.60;99.90;;;;;;5086798;28;21087;-92
2022/06/07 13:33:16;;;;;;;0.00;0.00;;;19.70;99.90;;;;;;5095285;28;20415;-91
2022/06/07 13:35:49;;;;;;;0.00;0.00;;;19.70;99.90;;;;;;5097732;28;20461;-91
2022/06/07 13:38:27;;;;;;;0.00;0.00;;;19.60;99.90;;;;;;5097029;28;20435;-91
2022/06/07 13:41:05;;;;;;;0.00;0.00;;;19.80;99.90;;;;;;5112785;28;20550;-92
2022/06/07 13:43:35;;;;;;;0.00;0.00;;;20.00;99.90;;;;;;5095973;28;20547;-92
2022/06/07 13:46:23;;;;;;;0.00;0.00;;;20.10;99.90;;;;;;5094727;28;20516;-92
2022/06/07 13:55:45;;;;;;;0.00;0.00;;;20.60;99.90;;;;;;5050154;28;20452;-92
2022/06/07 13:58:16;;;;;;;0.00;0.00;;;20.90;99.90;;;;;;5051978;28;20483;-92
2022/06/07 14:00:52;;;;;;;0.00;0.00;;;21.10;99.90;;;;;;5078509;28;20479;-92
2022/06/07 14:03:36;;;;;;;0.00;0.00;;;21.00;99.90;;;;;;5094263;28;20466;-92
2022/06/07 14:06:27;;;;;;;0.00;0.00;;;21.00;99.90;;;;;;5092469;28;20473;-92
2022/06/07 14:09:00;;;;;;;0.00;0.00;;;20.80;99.90;;;;;;5094633;28;20445;-92
2022/06/07 14:11:29;;;;;;;0.00;0.00;;;20.70;99.90;;;;;;5109758;28;20407;-90
2022/06/07 14:14:04;;;;;;;0.00;0.00;;;20.40;99.90;;;;;;5111203;28;20450;-91
2022/06/07 14:16:37;;;;;;;0.00;0.00;;;20.20;99.90;;;;;;5106074;28;20462;-91
2022/06/07 14:19:12;;;;;;;0.00;0.00;;;20.10;99.90;;;;;;5105965;28;20662;-90
2022/06/07 14:21:41;;;;;;;0.00;0.00;;;20.10;99.90;;;;;;5108595;28;20772;-91
2022/06/07 14:24:16;;;;;;;0.00;0.00;;;20.20;99.90;;;;;;5109643;28;20486;-91
2022/06/07 14:26:45;;;;;;;0.00;0.00;;;20.40;99.90;;;;;;5106557;28;20438;-90
2022/06/07 14:29:30;;;;;;;0.00;0.00;;;20.50;99.90;;;;;;5098078;28;20450;-91
2022/06/07 14:32:00;;;;;;;0.00;0.00;;;20.70;99.90;;;;;;5096054;28;20597;-91
2022/06/07 14:34:35;;;;;;;0.00;0.00;;;20.80;99.90;;;;;;5096217;28;20472;-88
2022/06/07 14:37:21;;;;;;;0.00;0.00;;;20.70;99.90;;;;;;5097414;28;20510;-90
2022/06/07 14:40:06;;;;;;;0.00;0.00;;;20.60;99.90;;;;;;5110914;28;20458;-89
2022/06/07 14:42:42;;;;;;;0.00;0.00;;;20.60;99.90;;;;;;5100697;28;20470;-89
2022/06/07 14:45:20;;;;;;;0.00;0.00;;;20.40;99.90;;;;;;5094748;28;20939;-93
2022/06/07 14:47:53;;;;;;;0.00;0.00;;;20.30;99.90;;;;;;5094286;28;20453;-90
2022/06/07 14:50:34;;;;;;;0.00;0.00;;;20.20;99.90;;;;;;5092332;28;20492;-92
2022/06/07 14:53:14;;;;;;;0.00;0.00;;;20.00;99.90;;;;;;5095049;28;20474;-91
2022/06/07 14:55:56;;;;;;;0.00;0.00;;;19.90;99.90;;;;;;5105061;28;20450;-91
2022/06/07 14:58:25;;;;;;;0.00;0.00;;;19.60;99.90;;;;;;5102669;28;20464;-90
2022/06/07 15:01:11;;;;;;;0.00;0.00;;;19.30;99.90;;;;;;5101588;28;21152;-93
2022/06/07 15:03:42;;;;;;;0.00;0.00;;;19.20;99.90;;;;;;5110428;28;20530;-92
2022/06/07 15:06:32;;;;;;;0.00;0.00;;;19.10;99.90;;;;;;5104317;28;20470;-92
2022/06/07 15:09:17;;;;;;;0.00;0.00;;;19.00;99.90;;;;;;5096712;28;20923;-92
2022/06/07 15:11:57;;;;;;;0.00;0.00;;;19.00;99.90;;;;;;5102303;28;20441;-92
2022/06/07 15:14:32;;;;;;;0.00;0.00;;;19.00;99.90;;;;;;5099257;28;20486;-91
2022/06/07 15:17:11;;;;;;;0.00;0.00;;;19.00;99.90;;;;;;5094770;28;20449;-93
2022/06/07 15:19:59;;;;;;;0.00;0.00;;;19.00;99.90;;;;;;5094482;28;20450;-93
2022/06/07 15:22:41;;;;;;;0.00;0.00;;;19.20;99.90;;;;;;5097292;28;20468;-92
2022/06/07 15:25:21;;;;;;;0.00;0.00;;;19.20;99.90;;;;;;5094588;28;21016;-92
2022/06/07 15:27:54;;;;;;;0.00;0.00;;;19.30;99.90;;;;;;5095250;28;20533;-91
2022/06/07 15:30:31;;;;;;;0.00;0.00;;;19.40;99.90;;;;;;5099799;28;20446;-92
2022/06/07 15:33:08;;;;;;;0.00;0.00;;;19.50;99.90;;;;;;5101010;28;20465;-93
2022/06/07 15:36:02;;;;;;;0.00;0.00;;;19.60;99.90;;;;;;5095733;28;20457;-92
2022/06/07 15:39:02;;;;;;;0.00;0.00;;;19.60;99.90;;;;;;5114198;28;20465;-91
2022/06/07 15:45:06;;;;;;;0.00;0.00;;;19.50;99.90;;;;;;5102921;28;20606;-91
2022/06/07 15:47:54;;;;;;;0.00;0.00;;;19.60;99.90;;;;;;5107090;28;20668;-92
2022/06/07 15:50:43;;;;;;;0.00;0.00;;;19.60;99.90;;;;;;5101248;28;20983;-91
2022/06/07 15:54:02;;;;;;;0.00;0.00;;;19.50;99.90;;;;;;5100684;28;20478;-91
2022/06/07 15:56:39;;;;;;;0.00;0.00;;;19.60;99.90;;;;;;5100870;28;20442;-91
2022/06/07 15:59:11;;;;;;;0.00;0.00;;;19.40;99.90;;;;;;5106920;28;20466;-93
2022/06/07 16:02:09;;;;;;;0.00;0.00;;;19.20;99.90;;;;;;5106116;28;20494;-91
2022/06/07 16:04:49;;;;;;;0.00;0.00;;;19.10;99.90;;;;;;5097413;28;20480;-91
2022/06/07 16:07:20;;;;;;;0.00;0.00;;;18.90;99.90;;;;;;5092309;28;20446;-92
2022/06/07 16:10:06;;;;;;;0.00;0.00;;;18.80;99.90;;;;;;5076791;28;20533;-92
2022/06/07 16:13:20;;;;;;;0.00;0.00;;;18.90;99.90;;;;;;5078046;28;20447;-93
2022/06/07 16:15:54;;;;;;;0.00;0.00;;;19.00;99.90;;;;;;5075939;28;20449;-95
2022/06/07 16:18:40;;;;;;;0.00;0.00;;;18.80;99.90;;;;;;5091196;28;21006;-92
2022/06/07 16:21:09;;;;;;;0.00;0.00;;;18.70;99.90;;;;;;5101463;28;20444;-90
2022/06/07 16:23:44;;;;;;;0.00;0.00;;;18.60;99.90;;;;;;5107450;28;20471;-91
2022/06/07 16:26:39;;;;;;;0.00;0.00;;;18.70;99.90;;;;;;5070743;28;21115;-92
2022/06/07 16:35:26;;;;;;;0.00;0.00;;;18.50;99.90;;;;;;5104580;28;20442;-93
2022/06/07 16:37:59;;;;;;;0.00;0.00;;;18.40;99.90;;;;;;5111032;28;20499;-92
2022/06/07 16:40:28;;;;;;;0.00;0.00;;;18.40;99.90;;;;;;5110579;28;20452;-92
2022/06/07 16:46:20;;;;;;;0.00;0.00;;;18.30;99.90;;;;;;5076502;28;20457;-92
2022/06/07 16:49:24;;;;;;;0.00;0.00;;;18.20;99.90;;;;;;5086320;28;20444;-93
2022/06/07 16:52:05;;;;;;;0.00;0.00;;;18.20;99.90;;;;;;5099922;28;20508;-91
2022/06/07 16:58:09;;;;;;;0.00;0.00;;;18.00;99.90;;;;;;5107113;28;20511;-94
2022/06/07 17:08:57;;;;;;;0.00;0.00;;;18.30;99.90;;;;;;5076459;28;20473;-92
2022/06/07 17:11:28;;;;;;;0.00;0.00;;;18.50;99.90;;;;;;5078051;28;20939;-91
2022/06/07 17:14:03;;;;;;;0.00;0.00;;;18.90;99.90;;;;;;5078785;28;20463;-92
2022/06/07 17:16:55;;;;;;;0.00;0.00;;;19.00;99.90;;;;;;5081234;28;21126;-92
2022/06/07 17:19:39;;;;;;;0.00;0.00;;;19.00;99.90;;;;;;5076930;28;21168;-90
2022/06/07 17:22:37;;;;;;;0.00;0.00;;;19.00;99.90;;;;;;5077240;28;20549;-92
2022/06/07 17:25:28;;;;;;;0.00;0.00;;;19.00;99.90;;;;;;5077785;28;20462;-91
2022/06/07 17:28:01;;;;;;;0.00;0.00;;;19.00;99.90;;;;;;5077154;28;20990;-91
2022/06/07 17:31:04;;;;;;;0.00;0.00;;;19.10;99.90;;;;;;5085516;28;20447;-91
2022/06/07 17:33:37;;;;;;;0.00;0.00;;;19.30;99.90;;;;;;5082796;28;20485;-92
2022/06/07 17:36:11;;;;;;;0.00;0.00;;;19.30;99.90;;;;;;5084451;28;20458;-93
2022/06/07 17:38:45;;;;;;;0.00;0.00;;;19.10;99.90;;;;;;5094749;28;20450;-91
2022/06/07 17:41:20;;;;;;;0.00;0.00;;;18.90;99.90;;;;;;5085896;28;20436;-91
2022/06/07 17:43:57;;;;;;;0.00;0.00;;;18.60;99.90;;;;;;5083901;28;20484;-92
2022/06/07 17:46:29;;;;;;;0.00;0.00;;;18.30;99.90;;;;;;5089881;28;20455;-90
2022/06/07 17:49:24;;;;;;;0.00;0.00;;;18.20;99.90;;;;;;5085371;28;20433;-90
2022/06/07 17:52:20;;;;;;;0.00;0.00;;;18.10;99.90;;;;;;5070440;28;20434;-90
2022/06/07 17:55:04;;;;;;;0.00;0.00;;;17.90;99.90;;;;;;5082422;28;20469;-91
2022/06/07 17:57:35;;;;;;;0.00;0.00;;;17.80;99.90;;;;;;5081161;28;20441;-92
2022/06/07 18:00:14;;;;;;;0.00;0.00;;;17.80;99.90;;;;;;5081986;28;20451;-89
2022/06/07 18:02:51;;;;;;;0.00;0.00;;;17.80;99.90;;;;;;5079228;28;20488;-90
2022/06/07 18:05:34;;;;;;;0.00;0.00;;;17.80;99.90;;;;;;5080442;28;20505;-90
2022/06/07 18:08:17;;;;;;;0.00;0.00;;;17.80;99.90;;;;;;5080930;28;20468;-91
2022/06/07 18:10:51;;;;;;;0.00;0.00;;;17.90;99.90;;;;;;5079313;28;20453;-90
2022/06/07 18:13:26;;;;;;;0.00;0.00;;;17.80;99.90;;;;;;5078862;28;20634;-92
2022/06/07 18:15:59;;;;;;;0.00;0.00;;;17.90;99.90;;;;;;5078662;28;20836;-88
2022/06/07 18:18:33;;;;;;;0.00;0.00;;;17.90;99.90;;;;;;5079790;28;20464;-90
2022/06/07 18:21:14;;;;;;;0.00;0.00;;;17.90;99.90;;;;;;5079790;28;20454;-90
2022/06/07 18:23:58;;;;;;;0.00;0.00;;;17.90;99.90;;;;;;5080206;28;21089;-92
2022/06/07 18:27:18;;;;;;;0.00;0.00;;;18.00;99.90;;;;;;5079717;28;20449;-91